sensor_id;sensor_type;location;lat;lon;timestamp;temperature;humidity
7204;DHT22;3643;52.460;13.322;2022-12-18T00:00:40;-5.40;99.90
7204;DHT22;3643;52.460;13.322;2022-12-18T00:03:08;-5.30;99.90
7204;DHT22;3643;52.460;13.322;2022-12-18T00:05:47;-5.40;99.90
7204;DHT22;3643;52.460;13.322;2022-12-18T00:08:16;-5.50;99.90
7204;DHT22;3643;52.460;13.322;2022-12-18T00:10:47;-5.50;99.90
7204;DHT22;3643;52.460;13.322;2022-12-18T00:13:16;-5.50;99.90
7204;DHT22;3643;52.460;13.322;2022-12-18T00:18:21;-5.50;99.90
7204;DHT22;3643;52.460;13.322;2022-12-18T00:20:50;-5.60;99.90
7204;DHT22;3643;52.460;13.322;2022-12-18T00:23:19;-5.60;99.90
7204;DHT22;3643;52.460;13.322;2022-12-18T00:25:47;-5.60;99.90
7204;DHT22;3643;52.460;13.322;2022-12-18T00:28:16;-5.60;99.90
7204;DHT22;3643;52.460;13.322;2022-12-18T00:30:44;-5.60;99.90
7204;DHT22;3643;52.460;13.322;2022-12-18T00:33:13;-5.60;99.90
7204;DHT22;3643;52.460;13.322;2022-12-18T00:35:42;-5.60;99.90
7204;DHT22;3643;52.460;13.322;2022-12-18T00:38:12;-5.70;99.90
7204;DHT22;3643;52.460;13.322;2022-12-18T00:40:40;-5.70;99.90
7204;DHT22;3643;52.460;13.322;2022-12-18T00:43:09;-5.80;99.90
7204;DHT22;3643;52.460;13.322;2022-12-18T00:45:37;-5.70;99.90
7204;DHT22;3643;52.460;13.322;2022-12-18T00:48:06;-5.70;99.90
7204;DHT22;3643;52.460;13.322;2022-12-18T00:50:35;-5.70;99.90
7204;DHT22;3643;52.460;13.322;2022-12-18T00:53:04;-5.60;99.90
7204;DHT22;3643;52.460;13.322;2022-12-18T00:55:34;-5.70;99.90
7204;DHT22;3643;52.460;13.322;2022-12-18T00:58:03;-5.70;99.90
7204;DHT22;3643;52.460;13.322;2022-12-18T01:00:32;-5.70;99.90
7204;DHT22;3643;52.460;13.322;2022-12-18T01:03:01;-5.80;99.90
7204;DHT22;3643;52.460;13.322;2022-12-18T01:05:30;-5.60;99.90
7204;DHT22;3643;52.460;13.322;2022-12-18T01:07:59;-5.80;99.90
7204;DHT22;3643;52.460;13.322;2022-12-18T01:10:27;-5.70;99.90
7204;DHT22;3643;52.460;13.322;2022-12-18T01:12:57;-5.80;99.90
7204;DHT22;3643;52.460;13.322;2022-12-18T01:15:26;-5.80;99.90
7204;DHT22;3643;52.460;13.322;2022-12-18T01:17:55;-5.70;99.90
7204;DHT22;3643;52.460;13.322;2022-12-18T01:20:27;-5.70;99.90
7204;DHT22;3643;52.460;13.322;2022-12-18T01:23:01;-5.70;99.90
7204;DHT22;3643;52.460;13.322;2022-12-18T01:25:30;-5.70;99.90
7204;DHT22;3643;52.460;13.322;2022-12-18T01:28:00;-5.60;99.90
7204;DHT22;3643;52.460;13.322;2022-12-18T01:30:29;-5.70;99.90
7204;DHT22;3643;52.460;13.322;2022-12-18T01:32:57;-5.80;99.90
7204;DHT22;3643;52.460;13.322;2022-12-18T01:35:26;-5.80;99.90
7204;DHT22;3643;52.460;13.322;2022-12-18T01:37:55;-5.80;99.90
7204;DHT22;3643;52.460;13.322;2022-12-18T01:40:24;-5.80;99.90
7204;DHT22;3643;52.460;13.322;2022-12-18T01:42:54;-5.90;99.90
7204;DHT22;3643;52.460;13.322;2022-12-18T01:45:26;-6.00;99.90
7204;DHT22;3643;52.460;13.322;2022-12-18T01:47:57;-6.00;99.90
7204;DHT22;3643;52.460;13.322;2022-12-18T01:50:31;-6.10;99.90
7204;DHT22;3643;52.460;13.322;2022-12-18T01:53:05;-6.10;99.90
7204;DHT22;3643;52.460;13.322;2022-12-18T01:55:38;-6.10;99.90
7204;DHT22;3643;52.460;13.322;2022-12-18T01:58:08;-5.90;99.90
7204;DHT22;3643;52.460;13.322;2022-12-18T02:00:39;-6.00;99.90
7204;DHT22;3643;52.460;13.322;2022-12-18T02:03:08;-5.90;99.90
7204;DHT22;3643;52.460;13.322;2022-12-18T02:05:44;-5.80;99.90
7204;DHT22;3643;52.460;13.322;2022-12-18T02:08:19;-5.90;99.90
7204;DHT22;3643;52.460;13.322;2022-12-18T02:10:56;-5.90;99.90
7204;DHT22;3643;52.460;13.322;2022-12-18T02:13:36;-6.00;99.90
7204;DHT22;3643;52.460;13.322;2022-12-18T02:16:12;-5.90;99.90
7204;DHT22;3643;52.460;13.322;2022-12-18T02:18:48;-6.00;99.90
7204;DHT22;3643;52.460;13.322;2022-12-18T02:21:27;-6.10;99.90
7204;DHT22;3643;52.460;13.322;2022-12-18T02:24:04;-6.10;99.90
7204;DHT22;3643;52.460;13.322;2022-12-18T02:26:43;-6.00;99.90
7204;DHT22;3643;52.460;13.322;2022-12-18T02:29:16;-6.00;99.90
7204;DHT22;3643;52.460;13.322;2022-12-18T02:31:51;-6.00;99.90
7204;DHT22;3643;52.460;13.322;2022-12-18T02:34:27;-5.90;99.90
7204;DHT22;3643;52.460;13.322;2022-12-18T02:36:58;-6.00;99.90
7204;DHT22;3643;52.460;13.322;2022-12-18T02:39:29;-5.90;99.90
7204;DHT22;3643;52.460;13.322;2022-12-18T02:42:06;-5.90;99.90
7204;DHT22;3643;52.460;13.322;2022-12-18T02:44:39;-5.90;99.90
7204;DHT22;3643;52.460;13.322;2022-12-18T02:47:11;-5.90;99.90
7204;DHT22;3643;52.460;13.322;2022-12-18T02:49:48;-6.00;99.90
7204;DHT22;3643;52.460;13.322;2022-12-18T02:52:27;-6.00;99.90
7204;DHT22;3643;52.460;13.322;2022-12-18T02:55:04;-6.10;99.90
7204;DHT22;3643;52.460;13.322;2022-12-18T02:57:42;-6.20;99.90
7204;DHT22;3643;52.460;13.322;2022-12-18T03:00:16;-6.10;99.90
7204;DHT22;3643;52.460;13.322;2022-12-18T03:02:51;-6.10;99.90
7204;DHT22;3643;52.460;13.322;2022-12-18T03:05:24;-6.00;99.90
7204;DHT22;3643;52.460;13.322;2022-12-18T03:07:57;-6.10;99.90
7204;DHT22;3643;52.460;13.322;2022-12-18T03:10:32;-6.10;99.90
7204;DHT22;3643;52.460;13.322;2022-12-18T03:13:06;-6.10;99.90
7204;DHT22;3643;52.460;13.322;2022-12-18T03:15:39;-6.10;99.90
7204;DHT22;3643;52.460;13.322;2022-12-18T03:18:13;-6.10;99.90
7204;DHT22;3643;52.460;13.322;2022-12-18T03:20:45;-6.10;99.90
7204;DHT22;3643;52.460;13.322;2022-12-18T03:23:17;-6.00;99.90
7204;DHT22;3643;52.460;13.322;2022-12-18T03:25:57;-6.00;99.90
7204;DHT22;3643;52.460;13.322;2022-12-18T03:28:38;-6.10;99.90
7204;DHT22;3643;52.460;13.322;2022-12-18T03:31:12;-6.10;99.90
7204;DHT22;3643;52.460;13.322;2022-12-18T03:33:47;-6.10;99.90
7204;DHT22;3643;52.460;13.322;2022-12-18T03:36:20;-6.10;99.90
7204;DHT22;3643;52.460;13.322;2022-12-18T03:38:50;-6.10;99.90
7204;DHT22;3643;52.460;13.322;2022-12-18T03:41:22;-6.20;99.90
7204;DHT22;3643;52.460;13.322;2022-12-18T03:44:00;-6.30;99.90
7204;DHT22;3643;52.460;13.322;2022-12-18T03:46:40;-6.30;99.90
7204;DHT22;3643;52.460;13.322;2022-12-18T03:49:14;-6.20;99.90
7204;DHT22;3643;52.460;13.322;2022-12-18T03:51:50;-6.20;99.90
7204;DHT22;3643;52.460;13.322;2022-12-18T03:54:20;-6.10;99.90
7204;DHT22;3643;52.460;13.322;2022-12-18T03:56:57;-6.20;99.90
7204;DHT22;3643;52.460;13.322;2022-12-18T03:59:28;-6.20;99.90
7204;DHT22;3643;52.460;13.322;2022-12-18T04:02:00;-6.20;99.90
7204;DHT22;3643;52.460;13.322;2022-12-18T04:04:31;-6.30;99.90
7204;DHT22;3643;52.460;13.322;2022-12-18T04:07:00;-6.20;99.90
7204;DHT22;3643;52.460;13.322;2022-12-18T04:09:31;-6.10;99.90
7204;DHT22;3643;52.460;13.322;2022-12-18T04:12:02;-6.10;99.90
7204;DHT22;3643;52.460;13.322;2022-12-18T04:14:32;-6.10;99.90
7204;DHT22;3643;52.460;13.322;2022-12-18T04:17:03;-6.20;99.90
7204;DHT22;3643;52.460;13.322;2022-12-18T04:19:31;-6.20;99.90
7204;DHT22;3643;52.460;13.322;2022-12-18T04:22:00;-6.20;99.90
7204;DHT22;3643;52.460;13.322;2022-12-18T04:24:29;-6.30;99.90
7204;DHT22;3643;52.460;13.322;2022-12-18T04:26:57;-6.30;99.90
7204;DHT22;3643;52.460;13.322;2022-12-18T04:29:27;-6.30;99.90
7204;DHT22;3643;52.460;13.322;2022-12-18T04:31:57;-6.30;99.90
7204;DHT22;3643;52.460;13.322;2022-12-18T04:34:26;-6.20;99.90
7204;DHT22;3643;52.460;13.322;2022-12-18T04:36:55;-6.30;99.90
7204;DHT22;3643;52.460;13.322;2022-12-18T04:39:24;-6.30;99.90
7204;DHT22;3643;52.460;13.322;2022-12-18T04:41:53;-6.30;99.90
7204;DHT22;3643;52.460;13.322;2022-12-18T04:44:24;-6.20;99.90
7204;DHT22;3643;52.460;13.322;2022-12-18T04:46:54;-6.30;99.90
7204;DHT22;3643;52.460;13.322;2022-12-18T04:49:24;-6.30;99.90
7204;DHT22;3643;52.460;13.322;2022-12-18T04:51:53;-6.30;99.90
7204;DHT22;3643;52.460;13.322;2022-12-18T04:54:22;-6.30;99.90
7204;DHT22;3643;52.460;13.322;2022-12-18T04:56:51;-6.30;99.90
7204;DHT22;3643;52.460;13.322;2022-12-18T04:59:21;-6.30;99.90
7204;DHT22;3643;52.460;13.322;2022-12-18T05:01:49;-6.40;99.90
7204;DHT22;3643;52.460;13.322;2022-12-18T05:04:18;-6.40;99.90
7204;DHT22;3643;52.460;13.322;2022-12-18T05:06:48;-6.40;99.90
7204;DHT22;3643;52.460;13.322;2022-12-18T05:09:16;-6.30;99.90
7204;DHT22;3643;52.460;13.322;2022-12-18T05:11:45;-6.30;99.90
7204;DHT22;3643;52.460;13.322;2022-12-18T05:14:14;-6.30;99.90
7204;DHT22;3643;52.460;13.322;2022-12-18T05:16:43;-5.90;99.90
7204;DHT22;3643;52.460;13.322;2022-12-18T05:19:11;-6.40;99.90
7204;DHT22;3643;52.460;13.322;2022-12-18T05:21:40;-6.40;99.90
7204;DHT22;3643;52.460;13.322;2022-12-18T05:24:09;-6.40;99.90
7204;DHT22;3643;52.460;13.322;2022-12-18T05:26:38;-6.40;99.90
7204;DHT22;3643;52.460;13.322;2022-12-18T05:29:07;-6.30;99.90
7204;DHT22;3643;52.460;13.322;2022-12-18T05:31:40;-6.40;99.90
7204;DHT22;3643;52.460;13.322;2022-12-18T05:34:15;-6.50;99.90
7204;DHT22;3643;52.460;13.322;2022-12-18T05:36:43;-5.90;99.90
7204;DHT22;3643;52.460;13.322;2022-12-18T05:39:13;-6.40;99.90
7204;DHT22;3643;52.460;13.322;2022-12-18T05:41:42;-6.40;99.90
7204;DHT22;3643;52.460;13.322;2022-12-18T05:44:10;-6.40;99.90
7204;DHT22;3643;52.460;13.322;2022-12-18T05:46:38;-6.40;99.90
7204;DHT22;3643;52.460;13.322;2022-12-18T05:49:09;-6.40;99.90
7204;DHT22;3643;52.460;13.322;2022-12-18T05:51:37;-7.00;99.90
7204;DHT22;3643;52.460;13.322;2022-12-18T05:54:07;-6.50;99.90
7204;DHT22;3643;52.460;13.322;2022-12-18T05:56:38;-6.50;99.90
7204;DHT22;3643;52.460;13.322;2022-12-18T05:59:14;-6.50;99.90
7204;DHT22;3643;52.460;13.322;2022-12-18T06:01:45;-6.60;99.90
7204;DHT22;3643;52.460;13.322;2022-12-18T06:04:16;-6.50;99.90
7204;DHT22;3643;52.460;13.322;2022-12-18T06:06:44;-6.50;99.90
7204;DHT22;3643;52.460;13.322;2022-12-18T06:09:12;-6.50;99.90
7204;DHT22;3643;52.460;13.322;2022-12-18T06:11:42;-6.50;99.90
7204;DHT22;3643;52.460;13.322;2022-12-18T06:14:10;-5.60;99.90
7204;DHT22;3643;52.460;13.322;2022-12-18T06:16:39;-6.40;99.90
7204;DHT22;3643;52.460;13.322;2022-12-18T06:19:07;-6.50;99.90
7204;DHT22;3643;52.460;13.322;2022-12-18T06:21:35;-6.40;99.90
7204;DHT22;3643;52.460;13.322;2022-12-18T06:24:04;-6.40;99.90
7204;DHT22;3643;52.460;13.322;2022-12-18T06:26:34;-6.40;99.90
7204;DHT22;3643;52.460;13.322;2022-12-18T06:29:05;-6.30;99.90
7204;DHT22;3643;52.460;13.322;2022-12-18T06:31:34;-6.40;99.90
7204;DHT22;3643;52.460;13.322;2022-12-18T06:34:03;-6.40;99.90
7204;DHT22;3643;52.460;13.322;2022-12-18T06:36:32;-6.40;99.90
7204;DHT22;3643;52.460;13.322;2022-12-18T06:39:00;-6.40;99.90
7204;DHT22;3643;52.460;13.322;2022-12-18T06:41:29;-6.30;99.90
7204;DHT22;3643;52.460;13.322;2022-12-18T06:43:58;-6.90;99.90
7204;DHT22;3643;52.460;13.322;2022-12-18T06:46:28;-6.30;99.90
7204;DHT22;3643;52.460;13.322;2022-12-18T06:48:57;-6.20;99.90
7204;DHT22;3643;52.460;13.322;2022-12-18T06:51:26;-6.20;99.90
7204;DHT22;3643;52.460;13.322;2022-12-18T06:53:54;-6.20;99.90
7204;DHT22;3643;52.460;13.322;2022-12-18T06:56:23;-6.20;99.90
7204;DHT22;3643;52.460;13.322;2022-12-18T06:58:51;-6.10;99.90
7204;DHT22;3643;52.460;13.322;2022-12-18T07:01:20;-6.20;99.90
7204;DHT22;3643;52.460;13.322;2022-12-18T07:03:54;-6.10;99.90
7204;DHT22;3643;52.460;13.322;2022-12-18T07:06:23;-6.10;99.90
7204;DHT22;3643;52.460;13.322;2022-12-18T07:08:53;-6.00;99.90
7204;DHT22;3643;52.460;13.322;2022-12-18T07:11:22;-6.10;99.90
7204;DHT22;3643;52.460;13.322;2022-12-18T07:13:52;-6.10;99.90
7204;DHT22;3643;52.460;13.322;2022-12-18T07:16:21;-6.10;99.90
7204;DHT22;3643;52.460;13.322;2022-12-18T07:18:56;-6.20;99.90
7204;DHT22;3643;52.460;13.322;2022-12-18T07:21:24;-6.10;99.90
7204;DHT22;3643;52.460;13.322;2022-12-18T07:23:53;-6.10;99.90
7204;DHT22;3643;52.460;13.322;2022-12-18T07:26:22;-6.00;99.90
7204;DHT22;3643;52.460;13.322;2022-12-18T07:28:50;-6.00;99.90
7204;DHT22;3643;52.460;13.322;2022-12-18T07:31:20;-6.00;99.90
7204;DHT22;3643;52.460;13.322;2022-12-18T07:33:49;-5.90;99.90
7204;DHT22;3643;52.460;13.322;2022-12-18T07:36:19;-5.90;99.90
7204;DHT22;3643;52.460;13.322;2022-12-18T07:38:49;-5.80;99.90
7204;DHT22;3643;52.460;13.322;2022-12-18T07:41:19;-5.80;99.90
7204;DHT22;3643;52.460;13.322;2022-12-18T07:43:47;-5.20;99.90
7204;DHT22;3643;52.460;13.322;2022-12-18T07:46:16;-5.90;99.90
7204;DHT22;3643;52.460;13.322;2022-12-18T07:48:45;-6.00;99.90
7204;DHT22;3643;52.460;13.322;2022-12-18T07:51:16;-6.00;99.90
7204;DHT22;3643;52.460;13.322;2022-12-18T07:53:47;-6.00;99.90
7204;DHT22;3643;52.460;13.322;2022-12-18T07:56:18;-5.90;99.90
7204;DHT22;3643;52.460;13.322;2022-12-18T07:58:56;-5.60;99.90
7204;DHT22;3643;52.460;13.322;2022-12-18T08:01:24;-5.80;99.90
7204;DHT22;3643;52.460;13.322;2022-12-18T08:03:53;-5.70;99.90
7204;DHT22;3643;52.460;13.322;2022-12-18T08:06:23;-5.60;99.90
7204;DHT22;3643;52.460;13.322;2022-12-18T08:08:54;-5.60;99.90
7204;DHT22;3643;52.460;13.322;2022-12-18T08:11:24;-5.60;99.90
7204;DHT22;3643;52.460;13.322;2022-12-18T08:13:54;-5.60;99.90
7204;DHT22;3643;52.460;13.322;2022-12-18T08:16:23;-5.60;99.90
7204;DHT22;3643;52.460;13.322;2022-12-18T08:18:53;-5.60;99.90
7204;DHT22;3643;52.460;13.322;2022-12-18T08:21:23;-5.50;99.90
7204;DHT22;3643;52.460;13.322;2022-12-18T08:23:54;-5.50;99.90
7204;DHT22;3643;52.460;13.322;2022-12-18T08:26:23;-5.50;99.90
7204;DHT22;3643;52.460;13.322;2022-12-18T08:28:54;-5.60;99.90
7204;DHT22;3643;52.460;13.322;2022-12-18T08:31:23;-5.50;99.90
7204;DHT22;3643;52.460;13.322;2022-12-18T08:33:53;-5.50;99.90
7204;DHT22;3643;52.460;13.322;2022-12-18T08:36:22;-5.50;99.90
7204;DHT22;3643;52.460;13.322;2022-12-18T08:38:54;-5.50;99.90
7204;DHT22;3643;52.460;13.322;2022-12-18T08:41:23;-5.50;99.90
7204;DHT22;3643;52.460;13.322;2022-12-18T08:43:57;-5.40;99.90
7204;DHT22;3643;52.460;13.322;2022-12-18T08:46:43;-5.50;99.90
7204;DHT22;3643;52.460;13.322;2022-12-18T08:49:12;-5.40;99.90
7204;DHT22;3643;52.460;13.322;2022-12-18T08:51:40;-5.30;99.90
7204;DHT22;3643;52.460;13.322;2022-12-18T08:54:12;-5.40;99.90
7204;DHT22;3643;52.460;13.322;2022-12-18T08:56:43;-5.40;99.90
7204;DHT22;3643;52.460;13.322;2022-12-18T08:59:11;-5.30;99.90
7204;DHT22;3643;52.460;13.322;2022-12-18T09:01:46;-5.60;99.90
7204;DHT22;3643;52.460;13.322;2022-12-18T09:04:14;-5.20;99.90
7204;DHT22;3643;52.460;13.322;2022-12-18T09:06:44;-5.20;99.90
7204;DHT22;3643;52.460;13.322;2022-12-18T09:09:13;-5.10;99.90
7204;DHT22;3643;52.460;13.322;2022-12-18T09:11:44;-5.10;99.90
7204;DHT22;3643;52.460;13.322;2022-12-18T09:14:12;-5.10;99.90
7204;DHT22;3643;52.460;13.322;2022-12-18T09:16:41;-5.10;99.90
7204;DHT22;3643;52.460;13.322;2022-12-18T09:19:10;-5.10;99.90
7204;DHT22;3643;52.460;13.322;2022-12-18T09:21:38;-5.00;99.90
7204;DHT22;3643;52.460;13.322;2022-12-18T09:24:15;-5.10;99.90
7204;DHT22;3643;52.460;13.322;2022-12-18T09:26:44;-5.20;99.90
7204;DHT22;3643;52.460;13.322;2022-12-18T09:29:14;-5.20;99.90
7204;DHT22;3643;52.460;13.322;2022-12-18T09:31:45;-5.20;99.90
7204;DHT22;3643;52.460;13.322;2022-12-18T09:34:13;-5.10;99.90
7204;DHT22;3643;52.460;13.322;2022-12-18T09:36:43;-5.30;99.90
7204;DHT22;3643;52.460;13.322;2022-12-18T09:39:14;-5.20;99.90
7204;DHT22;3643;52.460;13.322;2022-12-18T09:41:46;-5.10;99.90
7204;DHT22;3643;52.460;13.322;2022-12-18T09:44:22;-5.00;99.90
7204;DHT22;3643;52.460;13.322;2022-12-18T09:46:55;-4.90;99.90
7204;DHT22;3643;52.460;13.322;2022-12-18T09:49:30;-5.00;99.90
7204;DHT22;3643;52.460;13.322;2022-12-18T09:52:03;-4.90;99.90
7204;DHT22;3643;52.460;13.322;2022-12-18T09:54:38;-4.90;99.90
7204;DHT22;3643;52.460;13.322;2022-12-18T09:57:12;-4.90;99.90
7204;DHT22;3643;52.460;13.322;2022-12-18T09:59:43;-4.90;99.90
7204;DHT22;3643;52.460;13.322;2022-12-18T10:02:15;-4.60;99.90
7204;DHT22;3643;52.460;13.322;2022-12-18T10:04:50;-4.70;99.90
7204;DHT22;3643;52.460;13.322;2022-12-18T10:07:27;-4.60;99.90
7204;DHT22;3643;52.460;13.322;2022-12-18T10:10:05;-4.50;99.90
7204;DHT22;3643;52.460;13.322;2022-12-18T10:12:39;-4.50;99.90
7204;DHT22;3643;52.460;13.322;2022-12-18T10:15:13;-4.40;99.90
7204;DHT22;3643;52.460;13.322;2022-12-18T10:17:48;-4.40;99.90
7204;DHT22;3643;52.460;13.322;2022-12-18T10:20:24;-4.30;99.90
7204;DHT22;3643;52.460;13.322;2022-12-18T10:22:59;-4.40;99.90
7204;DHT22;3643;52.460;13.322;2022-12-18T10:25:34;-4.40;99.90
7204;DHT22;3643;52.460;13.322;2022-12-18T10:28:10;-4.30;99.90
7204;DHT22;3643;52.460;13.322;2022-12-18T10:30:41;-4.40;99.90
7204;DHT22;3643;52.460;13.322;2022-12-18T10:33:11;-4.40;99.90
7204;DHT22;3643;52.460;13.322;2022-12-18T10:35:45;-4.30;99.90
7204;DHT22;3643;52.460;13.322;2022-12-18T10:38:24;-4.30;99.90
7204;DHT22;3643;52.460;13.322;2022-12-18T10:40:57;-4.00;99.90
7204;DHT22;3643;52.460;13.322;2022-12-18T10:43:27;-4.00;99.90
7204;DHT22;3643;52.460;13.322;2022-12-18T10:46:14;-3.90;99.90
7204;DHT22;3643;52.460;13.322;2022-12-18T10:48:53;-3.70;99.90
7204;DHT22;3643;52.460;13.322;2022-12-18T10:51:25;-4.00;99.90
7204;DHT22;3643;52.460;13.322;2022-12-18T10:53:59;-3.90;99.90
7204;DHT22;3643;52.460;13.322;2022-12-18T10:56:33;-4.00;99.90
7204;DHT22;3643;52.460;13.322;2022-12-18T10:59:05;-4.10;99.90
7204;DHT22;3643;52.460;13.322;2022-12-18T11:01:47;-4.00;99.90
7204;DHT22;3643;52.460;13.322;2022-12-18T11:04:18;-3.80;99.90
7204;DHT22;3643;52.460;13.322;2022-12-18T11:06:56;-3.90;99.90
7204;DHT22;3643;52.460;13.322;2022-12-18T11:09:27;-3.70;99.90
7204;DHT22;3643;52.460;13.322;2022-12-18T11:11:59;-3.70;99.90
7204;DHT22;3643;52.460;13.322;2022-12-18T11:14:29;-3.60;99.90
7204;DHT22;3643;52.460;13.322;2022-12-18T11:17:00;-3.50;99.90
7204;DHT22;3643;52.460;13.322;2022-12-18T11:19:53;-3.50;99.90
7204;DHT22;3643;52.460;13.322;2022-12-18T11:22:24;-3.60;99.90
7204;DHT22;3643;52.460;13.322;2022-12-18T11:24:57;-3.60;99.90
7204;DHT22;3643;52.460;13.322;2022-12-18T11:27:52;-3.60;99.90
7204;DHT22;3643;52.460;13.322;2022-12-18T11:30:24;-3.60;99.90
7204;DHT22;3643;52.460;13.322;2022-12-18T11:36:02;-3.50;99.90
7204;DHT22;3643;52.460;13.322;2022-12-18T11:38:35;-3.50;99.90
7204;DHT22;3643;52.460;13.322;2022-12-18T11:41:13;-3.60;99.90
7204;DHT22;3643;52.460;13.322;2022-12-18T11:43:50;-3.50;99.90
7204;DHT22;3643;52.460;13.322;2022-12-18T11:46:26;-3.50;99.90
7204;DHT22;3643;52.460;13.322;2022-12-18T11:49:03;-3.60;99.90
7204;DHT22;3643;52.460;13.322;2022-12-18T11:51:41;-3.70;99.90
7204;DHT22;3643;52.460;13.322;2022-12-18T11:54:12;-3.50;99.90
7204;DHT22;3643;52.460;13.322;2022-12-18T11:56:45;-3.60;99.90
7204;DHT22;3643;52.460;13.322;2022-12-18T11:59:26;-3.50;99.90
7204;DHT22;3643;52.460;13.322;2022-12-18T12:02:04;-3.60;99.90
7204;DHT22;3643;52.460;13.322;2022-12-18T12:04:48;-3.60;99.90
7204;DHT22;3643;52.460;13.322;2022-12-18T12:07:28;-3.70;99.90
7204;DHT22;3643;52.460;13.322;2022-12-18T12:10:14;-3.50;99.90
7204;DHT22;3643;52.460;13.322;2022-12-18T12:13:00;-3.70;99.90
7204;DHT22;3643;52.460;13.322;2022-12-18T12:15:41;-3.60;99.90
7204;DHT22;3643;52.460;13.322;2022-12-18T12:18:20;-3.60;99.90
7204;DHT22;3643;52.460;13.322;2022-12-18T12:20:56;-3.50;99.90
7204;DHT22;3643;52.460;13.322;2022-12-18T12:23:31;-3.40;99.90
7204;DHT22;3643;52.460;13.322;2022-12-18T12:26:06;-3.40;99.90
7204;DHT22;3643;52.460;13.322;2022-12-18T12:28:52;-3.30;99.90
7204;DHT22;3643;52.460;13.322;2022-12-18T12:31:42;-3.20;99.90
7204;DHT22;3643;52.460;13.322;2022-12-18T12:34:19;-3.20;99.90
7204;DHT22;3643;52.460;13.322;2022-12-18T12:37:03;-3.10;99.90
7204;DHT22;3643;52.460;13.322;2022-12-18T12:39:37;-3.10;99.90
7204;DHT22;3643;52.460;13.322;2022-12-18T12:42:15;-3.20;99.90
7204;DHT22;3643;52.460;13.322;2022-12-18T12:45:06;-3.40;99.90
7204;DHT22;3643;52.460;13.322;2022-12-18T12:47:46;-3.40;99.90
7204;DHT22;3643;52.460;13.322;2022-12-18T12:50:18;-3.40;99.90
7204;DHT22;3643;52.460;13.322;2022-12-18T12:52:51;-3.40;99.90
7204;DHT22;3643;52.460;13.322;2022-12-18T12:55:24;-3.40;99.90
7204;DHT22;3643;52.460;13.322;2022-12-18T12:57:59;-3.30;99.90
7204;DHT22;3643;52.460;13.322;2022-12-18T13:00:36;-3.20;99.90
7204;DHT22;3643;52.460;13.322;2022-12-18T13:03:13;-3.30;99.90
7204;DHT22;3643;52.460;13.322;2022-12-18T13:05:48;-3.40;99.90
7204;DHT22;3643;52.460;13.322;2022-12-18T13:08:23;-3.40;99.90
7204;DHT22;3643;52.460;13.322;2022-12-18T13:10:54;-3.40;99.90
7204;DHT22;3643;52.460;13.322;2022-12-18T13:13:49;-3.40;99.90
7204;DHT22;3643;52.460;13.322;2022-12-18T13:16:19;-3.40;99.90
7204;DHT22;3643;52.460;13.322;2022-12-18T13:18:50;-3.30;99.90
7204;DHT22;3643;52.460;13.322;2022-12-18T13:21:22;-3.30;99.90
7204;DHT22;3643;52.460;13.322;2022-12-18T13:23:54;-3.30;99.90
7204;DHT22;3643;52.460;13.322;2022-12-18T13:26:33;-3.40;99.90
7204;DHT22;3643;52.460;13.322;2022-12-18T13:29:03;-3.40;99.90
7204;DHT22;3643;52.460;13.322;2022-12-18T13:34:30;-3.40;99.90
7204;DHT22;3643;52.460;13.322;2022-12-18T13:40:53;-3.30;99.90
7204;DHT22;3643;52.460;13.322;2022-12-18T13:43:32;-3.40;99.90
7204;DHT22;3643;52.460;13.322;2022-12-18T13:46:17;-3.50;99.90
7204;DHT22;3643;52.460;13.322;2022-12-18T13:48:52;-3.50;99.90
7204;DHT22;3643;52.460;13.322;2022-12-18T13:51:24;-3.50;99.90
7204;DHT22;3643;52.460;13.322;2022-12-18T13:53:55;-3.50;99.90
7204;DHT22;3643;52.460;13.322;2022-12-18T13:56:27;-3.40;99.90
7204;DHT22;3643;52.460;13.322;2022-12-18T13:59:32;-3.20;99.90
7204;DHT22;3643;52.460;13.322;2022-12-18T14:02:12;-3.40;99.90
7204;DHT22;3643;52.460;13.322;2022-12-18T14:04:45;-3.50;99.90
7204;DHT22;3643;52.460;13.322;2022-12-18T14:07:17;-3.50;99.90
7204;DHT22;3643;52.460;13.322;2022-12-18T14:09:48;-3.50;99.90
7204;DHT22;3643;52.460;13.322;2022-12-18T14:12:29;-3.50;99.90
7204;DHT22;3643;52.460;13.322;2022-12-18T14:15:22;-3.50;99.90
7204;DHT22;3643;52.460;13.322;2022-12-18T14:17:53;-3.50;99.90
7204;DHT22;3643;52.460;13.322;2022-12-18T14:20:23;-3.60;99.90
7204;DHT22;3643;52.460;13.322;2022-12-18T14:22:54;-3.50;99.90
7204;DHT22;3643;52.460;13.322;2022-12-18T14:25:26;-3.70;99.90
7204;DHT22;3643;52.460;13.322;2022-12-18T14:28:04;-3.70;99.90
7204;DHT22;3643;52.460;13.322;2022-12-18T14:30:37;-3.70;99.90
7204;DHT22;3643;52.460;13.322;2022-12-18T14:33:10;-3.70;99.90
7204;DHT22;3643;52.460;13.322;2022-12-18T14:35:40;-3.70;99.90
7204;DHT22;3643;52.460;13.322;2022-12-18T14:38:22;-3.70;99.90
7204;DHT22;3643;52.460;13.322;2022-12-18T14:40:55;-3.70;99.90
7204;DHT22;3643;52.460;13.322;2022-12-18T14:43:24;-3.80;99.90
7204;DHT22;3643;52.460;13.322;2022-12-18T14:45:52;-3.70;99.90
7204;DHT22;3643;52.460;13.322;2022-12-18T14:48:25;-3.90;99.90
7204;DHT22;3643;52.460;13.322;2022-12-18T14:51:02;-3.90;99.90
7204;DHT22;3643;52.460;13.322;2022-12-18T14:53:37;-3.90;99.90
7204;DHT22;3643;52.460;13.322;2022-12-18T14:56:17;-3.80;99.90
7204;DHT22;3643;52.460;13.322;2022-12-18T14:58:48;-3.90;99.90
7204;DHT22;3643;52.460;13.322;2022-12-18T15:01:26;-3.90;99.90
7204;DHT22;3643;52.460;13.322;2022-12-18T15:03:56;-3.80;99.90
7204;DHT22;3643;52.460;13.322;2022-12-18T15:06:28;-3.80;99.90
7204;DHT22;3643;52.460;13.322;2022-12-18T15:09:00;-3.90;99.90
7204;DHT22;3643;52.460;13.322;2022-12-18T15:11:34;-3.90;99.90
7204;DHT22;3643;52.460;13.322;2022-12-18T15:14:22;-3.90;99.90
7204;DHT22;3643;52.460;13.322;2022-12-18T15:16:52;-4.00;99.90
7204;DHT22;3643;52.460;13.322;2022-12-18T15:19:21;-3.90;99.90
7204;DHT22;3643;52.460;13.322;2022-12-18T15:21:50;-4.00;99.90
7204;DHT22;3643;52.460;13.322;2022-12-18T15:24:23;-4.10;99.90
7204;DHT22;3643;52.460;13.322;2022-12-18T15:26:52;-4.10;99.90
7204;DHT22;3643;52.460;13.322;2022-12-18T15:29:24;-4.20;99.90
7204;DHT22;3643;52.460;13.322;2022-12-18T15:32:04;-4.20;99.90
7204;DHT22;3643;52.460;13.322;2022-12-18T15:34:32;-4.30;99.90
7204;DHT22;3643;52.460;13.322;2022-12-18T15:37:09;-4.10;99.90
7204;DHT22;3643;52.460;13.322;2022-12-18T15:39:39;-4.20;99.90
7204;DHT22;3643;52.460;13.322;2022-12-18T15:42:13;-4.20;99.90
7204;DHT22;3643;52.460;13.322;2022-12-18T15:45:00;-4.00;99.90
7204;DHT22;3643;52.460;13.322;2022-12-18T15:47:28;-4.10;99.90
7204;DHT22;3643;52.460;13.322;2022-12-18T15:49:56;-4.00;99.90
7204;DHT22;3643;52.460;13.322;2022-12-18T15:52:25;-4.00;99.90
7204;DHT22;3643;52.460;13.322;2022-12-18T15:54:54;-4.00;99.90
7204;DHT22;3643;52.460;13.322;2022-12-18T15:57:40;-4.00;99.90
7204;DHT22;3643;52.460;13.322;2022-12-18T16:00:12;-3.90;99.90
7204;DHT22;3643;52.460;13.322;2022-12-18T16:02:41;-4.10;99.90
7204;DHT22;3643;52.460;13.322;2022-12-18T16:05:15;-4.10;99.90
7204;DHT22;3643;52.460;13.322;2022-12-18T16:07:43;-4.00;99.90
7204;DHT22;3643;52.460;13.322;2022-12-18T16:10:13;-4.10;99.90
7204;DHT22;3643;52.460;13.322;2022-12-18T16:12:42;-4.10;99.90
7204;DHT22;3643;52.460;13.322;2022-12-18T16:15:12;-4.10;99.90
7204;DHT22;3643;52.460;13.322;2022-12-18T16:17:50;-4.10;99.90
7204;DHT22;3643;52.460;13.322;2022-12-18T16:20:20;-4.00;99.90
7204;DHT22;3643;52.460;13.322;2022-12-18T16:22:49;-4.10;99.90
7204;DHT22;3643;52.460;13.322;2022-12-18T16:25:24;-4.10;99.90
7204;DHT22;3643;52.460;13.322;2022-12-18T16:27:53;-3.90;99.90
7204;DHT22;3643;52.460;13.322;2022-12-18T16:30:23;-4.10;99.90